Time;durP1;ratioP1;P1;durP2;ratioP2;P2;SDS_P1;SDS_P2;PMS_P1;PMS_P2;Temp;Humidity;BMP_temperature;BMP_pressure;BME280_temperature;BME280_humidity;BME280_pressure;Samples;Min_cycle;Max_cycle;Signal;HPM_P1;HPM_P2
2021/10/12 00:01:35;;;;;;;58.47;30.23;;;6.80;99.90;;;;;;4453600;32;20160;-66
2021/10/12 00:04:02;;;;;;;64.97;31.17;;;6.70;99.90;;;;;;4455925;32;20125;-66
2021/10/12 00:06:29;;;;;;;63.40;31.43;;;6.60;99.90;;;;;;4458487;32;20409;-66
2021/10/12 00:08:58;;;;;;;56.37;30.40;;;6.60;99.90;;;;;;4457795;32;20121;-67
2021/10/12 00:11:25;;;;;;;61.20;30.67;;;6.60;99.90;;;;;;4458153;32;20162;-66
2021/10/12 00:13:52;;;;;;;64.40;31.67;;;6.60;99.90;;;;;;4456355;32;20133;-66
2021/10/12 00:16:19;;;;;;;65.90;32.30;;;6.60;99.90;;;;;;4456046;32;20484;-66
2021/10/12 00:18:46;;;;;;;65.27;31.83;;;6.60;99.90;;;;;;4456673;32;20148;-67
2021/10/12 00:21:13;;;;;;;60.20;31.37;;;6.70;99.90;;;;;;4457689;32;20197;-67
2021/10/12 00:23:39;;;;;;;60.83;31.30;;;6.70;99.90;;;;;;4456245;32;20550;-67
2021/10/12 00:26:06;;;;;;;64.20;31.27;;;6.70;99.90;;;;;;4458161;32;20124;-67
2021/10/12 00:28:33;;;;;;;57.87;30.30;;;6.70;99.90;;;;;;4456236;32;20146;-66
2021/10/12 00:31:01;;;;;;;58.17;30.30;;;6.70;99.90;;;;;;4457542;32;20154;-67
2021/10/12 00:33:29;;;;;;;60.80;30.03;;;6.70;99.90;;;;;;4458053;32;20130;-67
2021/10/12 00:35:56;;;;;;;58.87;31.77;;;6.70;99.90;;;;;;4457522;32;20236;-67
2021/10/12 00:38:23;;;;;;;61.93;31.03;;;6.60;99.90;;;;;;4456197;32;20456;-66
2021/10/12 00:40:50;;;;;;;57.83;30.67;;;6.60;99.90;;;;;;4456763;32;20150;-67
2021/10/12 00:43:18;;;;;;;60.07;30.03;;;6.60;99.90;;;;;;4458201;32;20140;-67
2021/10/12 00:45:45;;;;;;;58.33;30.07;;;6.60;99.90;;;;;;4456724;32;20127;-66
2021/10/12 00:48:13;;;;;;;55.33;29.87;;;6.60;99.90;;;;;;4457108;32;20218;-66
2021/10/12 00:50:40;;;;;;;55.33;31.50;;;6.60;99.90;;;;;;4456149;32;20180;-67
2021/10/12 00:53:06;;;;;;;60.03;31.27;;;6.60;99.90;;;;;;4457706;32;20129;-66
2021/10/12 00:55:34;;;;;;;59.00;29.90;;;6.60;99.90;;;;;;4457924;32;20126;-66
2021/10/12 00:58:01;;;;;;;59.43;30.70;;;6.50;99.90;;;;;;4457463;32;20186;-67
2021/10/12 01:00:28;;;;;;;61.80;31.20;;;6.50;99.90;;;;;;4456057;32;20180;-67
2021/10/12 01:02:55;;;;;;;63.50;31.57;;;6.50;99.90;;;;;;4458280;32;20171;-67
2021/10/12 01:05:22;;;;;;;59.63;31.33;;;6.50;99.90;;;;;;4457086;32;20180;-67
2021/10/12 01:07:49;;;;;;;60.67;30.83;;;6.50;99.90;;;;;;4454828;32;20145;-67
2021/10/12 01:10:17;;;;;;;66.77;33.27;;;6.40;99.90;;;;;;4455857;32;20142;-67
2021/10/12 01:12:44;;;;;;;61.17;32.63;;;6.40;99.90;;;;;;4452759;32;20149;-66
2021/10/12 01:15:11;;;;;;;65.03;31.93;;;6.30;99.90;;;;;;4450217;32;20174;-66
2021/10/12 01:17:38;;;;;;;70.03;33.70;;;6.40;99.90;;;;;;4457056;32;20402;-66
2021/10/12 01:20:08;;;;;;;64.37;32.93;;;6.30;99.90;;;;;;4457334;32;20184;-66
2021/10/12 01:22:42;;;;;;;69.13;33.50;;;6.30;99.90;;;;;;4455612;32;20135;-66
2021/10/12 01:25:10;;;;;;;66.17;33.23;;;6.30;99.90;;;;;;4456144;32;20127;-66
2021/10/12 01:27:38;;;;;;;66.37;32.40;;;6.30;99.90;;;;;;4456811;32;20136;-66
2021/10/12 01:30:07;;;;;;;68.80;32.83;;;6.30;99.90;;;;;;4457157;32;20177;-68
2021/10/12 01:32:45;;;;;;;64.33;32.70;;;6.30;99.90;;;;;;4455239;32;20124;-66
2021/10/12 01:35:13;;;;;;;68.23;32.77;;;6.30;99.90;;;;;;4456997;32;20160;-66
2021/10/12 01:37:40;;;;;;;61.80;31.80;;;6.20;99.90;;;;;;4455054;32;20172;-66
2021/10/12 01:40:09;;;;;;;69.20;32.87;;;6.20;99.90;;;;;;4455858;32;20178;-66
2021/10/12 01:42:37;;;;;;;63.50;32.77;;;6.20;99.90;;;;;;4456889;32;20127;-67
2021/10/12 01:45:09;;;;;;;60.43;32.07;;;6.20;99.90;;;;;;4455305;32;20784;-66
2021/10/12 01:47:37;;;;;;;60.10;30.73;;;6.20;99.90;;;;;;4454877;32;20178;-66
2021/10/12 01:50:05;;;;;;;66.77;31.47;;;6.20;99.90;;;;;;4454980;32;20130;-67
2021/10/12 01:52:32;;;;;;;66.50;30.07;;;6.20;99.90;;;;;;4456748;32;20157;-66
2021/10/12 01:54:59;;;;;;;63.73;32.00;;;6.10;99.90;;;;;;4454967;32;20436;-66
2021/10/12 01:57:27;;;;;;;65.87;33.40;;;6.10;99.90;;;;;;4454812;32;20130;-67
2021/10/12 01:59:53;;;;;;;64.17;31.20;;;6.10;99.90;;;;;;4456322;32;20143;-66
2021/10/12 02:02:20;;;;;;;69.13;32.53;;;6.10;99.90;;;;;;4454628;32;20495;-66
2021/10/12 02:04:47;;;;;;;67.57;32.37;;;6.10;99.90;;;;;;4456980;32;20210;-66
2021/10/12 02:07:14;;;;;;;64.40;31.60;;;6.00;99.90;;;;;;4455115;32;20148;-66
2021/10/12 02:09:41;;;;;;;67.00;31.13;;;6.00;99.90;;;;;;4455223;32;20392;-66
2021/10/12 02:12:08;;;;;;;64.23;31.73;;;6.00;99.90;;;;;;4454138;32;20132;-67
2021/10/12 02:14:35;;;;;;;60.40;31.07;;;6.00;99.90;;;;;;4456172;32;20145;-66
2021/10/12 02:17:01;;;;;;;65.90;31.60;;;6.00;99.90;;;;;;4454651;32;20122;-66
2021/10/12 02:19:29;;;;;;;64.47;32.40;;;6.00;99.90;;;;;;4456579;32;20134;-66
2021/10/12 02:21:56;;;;;;;68.10;32.83;;;6.00;99.90;;;;;;4454811;32;20140;-66
2021/10/12 02:24:23;;;;;;;64.47;32.10;;;6.00;99.90;;;;;;4455031;32;20174;-67
2021/10/12 02:26:49;;;;;;;63.53;31.73;;;6.00;99.90;;;;;;4456410;32;20195;-67
2021/10/12 02:29:16;;;;;;;69.70;32.03;;;6.00;99.90;;;;;;4455242;32;20129;-66
2021/10/12 02:31:43;;;;;;;71.60;32.27;;;6.00;99.90;;;;;;4454328;32;20154;-67
2021/10/12 02:34:10;;;;;;;66.13;32.33;;;6.10;99.90;;;;;;4454458;32;20127;-66
2021/10/12 02:36:37;;;;;;;75.63;33.27;;;6.10;99.90;;;;;;4456162;32;20125;-66
2021/10/12 02:39:04;;;;;;;78.43;33.80;;;6.10;99.90;;;;;;4454594;32;20175;-66
2021/10/12 02:41:31;;;;;;;71.47;34.10;;;6.20;99.90;;;;;;4456184;32;20377;-66
2021/10/12 02:43:58;;;;;;;71.97;34.47;;;6.20;99.90;;;;;;4454064;32;20548;-66
2021/10/12 02:46:25;;;;;;;80.80;34.50;;;6.20;99.90;;;;;;4454427;32;20129;-67
2021/10/12 02:48:51;;;;;;;81.00;35.10;;;6.20;99.90;;;;;;4455176;32;20139;-67
2021/10/12 02:51:18;;;;;;;76.87;34.47;;;6.30;99.90;;;;;;4455597;32;20227;-67
2021/10/12 02:53:45;;;;;;;83.70;34.63;;;6.30;99.90;;;;;;4454303;32;20530;-66
2021/10/12 02:56:12;;;;;;;81.70;34.23;;;6.30;99.90;;;;;;4456153;32;20208;-67
2021/10/12 02:58:38;;;;;;;82.97;34.47;;;6.40;99.90;;;;;;4454061;32;20133;-66
2021/10/12 03:01:05;;;;;;;79.40;34.37;;;6.40;99.90;;;;;;4455826;32;20164;-66
2021/10/12 03:03:32;;;;;;;80.37;33.90;;;6.40;99.90;;;;;;4454587;32;20193;-67
2021/10/12 03:05:59;;;;;;;76.40;33.50;;;6.40;99.90;;;;;;4456375;32;20130;-66
2021/10/12 03:08:26;;;;;;;79.43;34.10;;;6.50;99.90;;;;;;4451638;32;20212;-66
2021/10/12 03:10:53;;;;;;;83.00;34.70;;;6.50;99.90;;;;;;4449181;32;20427;-68
2021/10/12 03:13:20;;;;;;;83.73;34.60;;;6.60;99.90;;;;;;4454527;32;20134;-66
2021/10/12 03:15:47;;;;;;;77.43;34.53;;;6.60;99.90;;;;;;4456023;32;20133;-66
2021/10/12 03:18:13;;;;;;;82.43;34.23;;;6.60;99.90;;;;;;4456054;32;20375;-67
2021/10/12 03:20:40;;;;;;;80.53;33.73;;;6.60;99.90;;;;;;4456243;32;20127;-66
2021/10/12 03:23:07;;;;;;;79.13;34.43;;;6.60;99.90;;;;;;4455378;32;20194;-66
2021/10/12 03:25:34;;;;;;;87.87;34.97;;;6.60;99.90;;;;;;4455678;32;20160;-68
2021/10/12 03:28:01;;;;;;;74.77;33.10;;;6.60;99.90;;;;;;4453778;32;20569;-67
2021/10/12 03:30:28;;;;;;;81.03;33.33;;;6.60;99.90;;;;;;4455446;32;20164;-67
2021/10/12 03:32:55;;;;;;;79.50;33.27;;;6.60;99.90;;;;;;4455926;32;20134;-67
2021/10/12 03:35:34;;;;;;;83.90;34.00;;;6.60;99.90;;;;;;4456144;32;20151;-66
2021/10/12 03:38:01;;;;;;;78.73;33.20;;;6.60;99.90;;;;;;4454273;32;20155;-66
2021/10/12 03:40:29;;;;;;;76.87;32.30;;;6.60;99.90;;;;;;4457287;32;20185;-67
2021/10/12 03:42:55;;;;;;;74.57;31.73;;;6.70;99.90;;;;;;4459011;32;20330;-66
2021/10/12 03:45:22;;;;;;;76.97;32.63;;;6.70;99.90;;;;;;4457409;32;20160;-67
2021/10/12 03:47:49;;;;;;;75.90;31.90;;;6.70;99.90;;;;;;4457079;32;20180;-66
2021/10/12 03:50:16;;;;;;;77.20;32.70;;;6.80;99.90;;;;;;4458742;32;20405;-66
2021/10/12 03:52:43;;;;;;;76.10;32.50;;;6.70;99.90;;;;;;4458965;32;20180;-66
2021/10/12 03:55:10;;;;;;;75.80;31.50;;;6.80;99.90;;;;;;4457145;32;20446;-66
2021/10/12 03:57:37;;;;;;;77.33;31.37;;;6.80;99.90;;;;;;4456945;32;20187;-66
2021/10/12 04:00:06;;;;;;;72.80;30.80;;;6.80;99.90;;;;;;4458653;32;20122;-66
2021/10/12 04:02:33;;;;;;;69.97;30.87;;;6.80;99.90;;;;;;4458342;32;20179;-66
2021/10/12 04:05:00;;;;;;;74.73;31.00;;;6.90;99.90;;;;;;4457069;32;20436;-66
2021/10/12 04:07:28;;;;;;;66.97;29.93;;;6.90;99.90;;;;;;4458752;32;20347;-67
2021/10/12 04:09:55;;;;;;;71.00;30.90;;;6.90;99.90;;;;;;4457029;32;20170;-66
2021/10/12 04:12:21;;;;;;;77.97;31.30;;;6.90;99.90;;;;;;4456628;32;20165;-66
2021/10/12 04:14:48;;;;;;;77.70;30.23;;;6.90;99.90;;;;;;4456813;32;20408;-66
2021/10/12 04:17:15;;;;;;;74.93;31.70;;;6.90;99.90;;;;;;4458618;32;20174;-66
2021/10/12 04:19:42;;;;;;;75.33;31.63;;;6.90;99.90;;;;;;4458529;32;20412;-66
2021/10/12 04:22:09;;;;;;;72.97;31.43;;;6.90;99.90;;;;;;4458122;32;20134;-66
2021/10/12 04:24:36;;;;;;;76.33;31.80;;;7.00;99.90;;;;;;4456964;32;20142;-67
2021/10/12 04:27:04;;;;;;;79.97;32.30;;;7.00;99.90;;;;;;4456695;32;20123;-66
2021/10/12 04:29:31;;;;;;;73.50;30.43;;;6.90;99.90;;;;;;4458265;32;20385;-67
2021/10/12 04:32:02;;;;;;;79.57;30.87;;;7.00;99.90;;;;;;4456262;32;20574;-66
2021/10/12 04:34:28;;;;;;;74.87;31.83;;;7.00;99.90;;;;;;4456506;32;20464;-66
2021/10/12 04:36:56;;;;;;;69.37;30.70;;;7.10;99.90;;;;;;4456437;32;20134;-67
2021/10/12 04:39:23;;;;;;;80.73;31.17;;;7.10;99.90;;;;;;4457228;32;20221;-66
2021/10/12 04:41:50;;;;;;;76.30;31.03;;;7.10;99.90;;;;;;4457979;32;20127;-67
2021/10/12 04:44:17;;;;;;;76.40;32.10;;;7.10;99.90;;;;;;4456289;32;20122;-66
2021/10/12 04:46:44;;;;;;;77.13;30.90;;;7.10;99.90;;;;;;4456384;32;20179;-66
2021/10/12 04:49:12;;;;;;;75.37;30.60;;;7.10;99.90;;;;;;4455580;32;20142;-67
2021/10/12 04:51:38;;;;;;;78.93;31.50;;;7.10;99.90;;;;;;4457773;32;20125;-67
2021/10/12 04:54:06;;;;;;;75.40;29.93;;;7.10;99.90;;;;;;4458031;32;20175;-66
2021/10/12 04:56:33;;;;;;;72.07;29.37;;;7.10;99.90;;;;;;4457231;32;20210;-66
2021/10/12 04:59:00;;;;;;;76.73;29.87;;;7.10;99.90;;;;;;4456009;32;20168;-67
2021/10/12 05:01:26;;;;;;;71.37;28.93;;;7.20;99.90;;;;;;4450561;32;20178;-67
2021/10/12 05:03:53;;;;;;;72.17;29.63;;;7.20;99.90;;;;;;4454857;32;20229;-66
2021/10/12 05:06:20;;;;;;;74.17;28.60;;;7.20;99.90;;;;;;4455978;32;20198;-66
2021/10/12 05:08:47;;;;;;;74.17;28.27;;;7.20;99.90;;;;;;4454892;32;20156;-66
2021/10/12 05:11:14;;;;;;;75.53;28.63;;;7.20;99.90;;;;;;4455759;32;20216;-66
2021/10/12 05:13:41;;;;;;;75.40;29.30;;;7.30;99.90;;;;;;4457457;32;20524;-67
2021/10/12 05:16:13;;;;;;;73.87;28.03;;;7.30;99.90;;;;;;4455991;32;20126;-67
2021/10/12 05:18:43;;;;;;;69.60;28.00;;;7.30;99.90;;;;;;4456967;32;20122;-67
2021/10/12 05:21:10;;;;;;;65.37;27.07;;;7.20;99.90;;;;;;4457348;32;20130;-67
2021/10/12 05:23:37;;;;;;;69.90;27.63;;;7.30;99.90;;;;;;4456982;32;20440;-66
2021/10/12 05:26:05;;;;;;;76.17;28.57;;;7.30;99.90;;;;;;4457212;32;20323;-66
2021/10/12 05:28:35;;;;;;;67.43;27.30;;;7.40;99.90;;;;;;4455760;32;20403;-67
2021/10/12 05:31:02;;;;;;;73.23;28.43;;;7.30;99.90;;;;;;4455833;32;20226;-66
2021/10/12 05:33:30;;;;;;;84.60;29.37;;;7.30;99.90;;;;;;4457347;32;20135;-66
2021/10/12 05:35:57;;;;;;;79.47;30.17;;;7.30;99.90;;;;;;4451824;32;20198;-67
2021/10/12 05:38:24;;;;;;;80.47;30.23;;;7.30;99.90;;;;;;4452477;32;20183;-67
2021/10/12 05:40:51;;;;;;;78.47;28.63;;;7.40;99.90;;;;;;4455425;32;20191;-66
2021/10/12 05:43:18;;;;;;;75.53;28.70;;;7.40;99.90;;;;;;4457055;32;20188;-66
2021/10/12 05:45:45;;;;;;;79.43;28.73;;;7.50;99.90;;;;;;4457081;32;20126;-67
2021/10/12 05:48:12;;;;;;;76.00;28.60;;;7.50;99.90;;;;;;4455452;32;20139;-67
2021/10/12 05:50:44;;;;;;;75.77;28.23;;;7.50;99.90;;;;;;4457192;32;20172;-68
2021/10/12 06:00:57;;;;;;;71.40;26.80;;;7.50;99.90;;;;;;4456676;32;20235;-65
2021/10/12 06:03:25;;;;;;;71.33;27.93;;;7.50;99.90;;;;;;4456287;32;20123;-66
2021/10/12 06:05:52;;;;;;;72.53;27.47;;;7.50;99.90;;;;;;4456733;32;20126;-66
2021/10/12 06:08:19;;;;;;;71.30;27.73;;;7.50;99.90;;;;;;4456505;32;20381;-65
2021/10/12 06:10:46;;;;;;;65.07;26.07;;;7.60;99.90;;;;;;4456037;32;20135;-66
2021/10/12 06:13:13;;;;;;;66.97;25.93;;;7.70;99.90;;;;;;4455780;32;20412;-67
2021/10/12 06:15:42;;;;;;;62.40;25.70;;;7.70;99.90;;;;;;4456053;32;20215;-66
2021/10/12 06:18:10;;;;;;;54.47;24.13;;;7.80;99.90;;;;;;4455462;32;20118;-67
2021/10/12 06:20:37;;;;;;;59.80;24.60;;;7.80;99.90;;;;;;4456476;32;20206;-66
2021/10/12 06:23:04;;;;;;;63.33;24.27;;;7.90;99.90;;;;;;4454791;32;20184;-65
2021/10/12 06:25:31;;;;;;;56.20;23.07;;;7.90;99.90;;;;;;4456743;32;20126;-68
2021/10/12 06:27:58;;;;;;;54.03;23.20;;;8.00;99.90;;;;;;4452607;32;20491;-66
2021/10/12 06:30:24;;;;;;;52.23;22.77;;;7.90;99.90;;;;;;4447865;32;20464;-67
2021/10/12 06:32:51;;;;;;;55.17;24.43;;;7.90;99.90;;;;;;4448467;32;20469;-67
2021/10/12 06:35:18;;;;;;;54.80;23.30;;;8.00;99.90;;;;;;4438830;32;20175;-66
2021/10/12 06:37:45;;;;;;;50.33;21.53;;;8.00;99.90;;;;;;4440908;32;20401;-67
2021/10/12 06:40:13;;;;;;;50.23;21.47;;;8.00;99.90;;;;;;4440886;32;20239;-67
2021/10/12 06:42:40;;;;;;;42.70;20.33;;;8.00;99.90;;;;;;4440745;32;20134;-67
2021/10/12 06:45:08;;;;;;;42.23;20.77;;;8.10;99.90;;;;;;4438603;32;20179;-67
2021/10/12 06:47:34;;;;;;;51.83;21.40;;;8.10;99.90;;;;;;4440096;32;20126;-65
2021/10/12 06:50:01;;;;;;;46.00;19.83;;;8.20;99.90;;;;;;4438638;32;20201;-66
2021/10/12 06:52:28;;;;;;;41.40;19.70;;;8.20;99.90;;;;;;4440781;32;20176;-66
2021/10/12 06:54:55;;;;;;;38.73;18.40;;;8.20;99.90;;;;;;4440105;32;20126;-66
2021/10/12 06:57:21;;;;;;;38.30;17.00;;;8.30;99.90;;;;;;4440822;32;20129;-68
2021/10/12 06:59:52;;;;;;;36.80;17.10;;;8.30;99.90;;;;;;4438906;32;20134;-67
2021/10/12 07:02:19;;;;;;;32.30;15.40;;;8.40;99.90;;;;;;4438550;32;20203;-67
2021/10/12 07:04:46;;;;;;;35.50;15.87;;;8.50;99.90;;;;;;4438988;32;20445;-68
2021/10/12 07:07:13;;;;;;;31.00;14.50;;;8.60;99.90;;;;;;4448165;32;20219;-66
2021/10/12 07:09:40;;;;;;;31.17;15.20;;;8.60;99.90;;;;;;4438868;32;20191;-67
2021/10/12 07:12:07;;;;;;;32.07;15.90;;;8.70;99.90;;;;;;4440948;32;20135;-67
2021/10/12 07:14:34;;;;;;;30.13;15.50;;;8.70;99.90;;;;;;4440329;32;20182;-67
2021/10/12 07:17:01;;;;;;;28.10;14.93;;;8.90;99.90;;;;;;4439135;32;20179;-67
2021/10/12 07:19:28;;;;;;;33.90;16.10;;;8.90;99.90;;;;;;4438791;32;20135;-66
2021/10/12 07:21:55;;;;;;;30.80;15.17;;;8.90;99.90;;;;;;4438555;32;20443;-66
2021/10/12 07:24:23;;;;;;;29.07;14.67;;;8.90;99.90;;;;;;4438630;32;20561;-67
2021/10/12 07:26:50;;;;;;;29.20;14.90;;;9.00;99.90;;;;;;4439513;32;20218;-67
2021/10/12 07:29:18;;;;;;;33.27;15.00;;;9.00;99.90;;;;;;4439750;32;20143;-67
2021/10/12 07:31:44;;;;;;;30.23;14.80;;;9.10;99.90;;;;;;4440363;32;20162;-66
2021/10/12 07:34:11;;;;;;;29.37;14.70;;;9.00;99.90;;;;;;4440323;32;20356;-66
2021/10/12 07:36:38;;;;;;;28.57;14.13;;;9.00;99.90;;;;;;4438633;32;20130;-66
2021/10/12 07:39:07;;;;;;;28.83;13.77;;;9.10;99.90;;;;;;4440094;32;20134;-66
2021/10/12 07:43:47;;;;;;;25.90;13.67;;;9.20;99.90;;;;;;4482730;31;20282;-66
2021/10/12 07:46:14;;;;;;;25.17;13.37;;;9.20;99.90;;;;;;4468169;32;20129;-67
2021/10/12 07:48:41;;;;;;;22.17;11.73;;;9.30;99.90;;;;;;4468072;32;20524;-67
2021/10/12 07:51:08;;;;;;;25.07;12.17;;;9.30;99.90;;;;;;4467604;32;20130;-67
2021/10/12 07:53:37;;;;;;;16.83;9.73;;;9.30;99.90;;;;;;4469429;32;20126;-69
2021/10/12 07:56:09;;;;;;;20.47;10.07;;;9.30;99.90;;;;;;4468740;32;20178;-68
2021/10/12 07:58:36;;;;;;;20.00;10.80;;;9.40;99.90;;;;;;4462977;32;20552;-67
2021/10/12 08:01:04;;;;;;;23.43;11.60;;;9.50;99.90;;;;;;4452284;32;20123;-67
2021/10/12 08:03:31;;;;;;;23.60;11.23;;;9.50;99.90;;;;;;4459302;32;20200;-67
2021/10/12 08:05:57;;;;;;;19.87;10.30;;;9.70;99.90;;;;;;4467276;32;20164;-67
2021/10/12 08:08:24;;;;;;;16.90;9.07;;;9.90;99.90;;;;;;4467521;32;20175;-66
2021/10/12 08:10:52;;;;;;;18.00;8.83;;;9.80;99.90;;;;;;4469423;32;20386;-67
2021/10/12 08:13:21;;;;;;;14.43;8.40;;;9.80;99.90;;;;;;4468767;32;20185;-67
2021/10/12 08:15:54;;;;;;;16.47;8.13;;;9.90;99.90;;;;;;4468813;32;20499;-67
2021/10/12 08:18:24;;;;;;;14.53;8.43;;;10.00;99.90;;;;;;4467651;32;20170;-66
2021/10/12 08:20:51;;;;;;;16.37;8.60;;;10.00;99.90;;;;;;4467285;32;20130;-67
2021/10/12 08:23:18;;;;;;;15.53;8.60;;;9.80;99.90;;;;;;4468926;32;20178;-66
2021/10/12 08:25:44;;;;;;;16.70;8.10;;;9.70;99.90;;;;;;4469203;32;20164;-69
2021/10/12 08:28:11;;;;;;;18.57;8.90;;;9.60;99.90;;;;;;4464558;32;20231;-67
2021/10/12 08:30:38;;;;;;;21.90;9.00;;;9.70;99.90;;;;;;4460208;32;20448;-67
2021/10/12 08:33:05;;;;;;;17.07;8.50;;;9.90;99.90;;;;;;4451808;32;20191;-67
2021/10/12 08:35:31;;;;;;;13.80;7.63;;;9.90;99.90;;;;;;4451678;32;20448;-67
2021/10/12 08:37:58;;;;;;;13.13;7.60;;;9.90;99.90;;;;;;4451718;32;20437;-67
2021/10/12 08:40:25;;;;;;;14.40;7.07;;;9.90;99.90;;;;;;4453335;32;20161;-67
2021/10/12 08:42:53;;;;;;;15.00;7.60;;;10.00;99.90;;;;;;4451335;32;20545;-66
2021/10/12 08:45:21;;;;;;;10.93;6.70;;;10.00;99.90;;;;;;4452556;32;20160;-67
2021/10/12 08:47:49;;;;;;;14.07;7.50;;;9.80;99.90;;;;;;4451475;32;20162;-65
2021/10/12 08:50:20;;;;;;;14.13;7.37;;;9.90;99.90;;;;;;4452342;32;20146;-67
2021/10/12 08:52:47;;;;;;;13.43;6.80;;;10.00;99.90;;;;;;4452928;32;20402;-66
2021/10/12 08:55:15;;;;;;;12.43;6.80;;;10.10;99.90;;;;;;4442612;32;20127;-66
2021/10/12 08:57:44;;;;;;;11.60;6.30;;;10.30;99.90;;;;;;4442912;32;20173;-66
2021/10/12 09:00:14;;;;;;;9.93;5.60;;;10.50;99.90;;;;;;4442622;32;20143;-66
2021/10/12 09:06:03;;;;;;;7.27;4.30;;;10.80;99.90;;;;;;4407996;32;20147;-67
2021/10/12 09:08:35;;;;;;;8.13;4.43;;;10.90;99.90;;;;;;4408418;32;20193;-66
2021/10/12 09:11:21;;;;;;;10.70;5.10;;;10.90;99.90;;;;;;4408859;32;20147;-65
2021/10/12 09:13:51;;;;;;;7.70;3.90;;;11.10;99.90;;;;;;4402931;32;20163;-66
2021/10/12 09:16:18;;;;;;;8.43;4.60;;;11.60;99.90;;;;;;4409657;32;20439;-65
2021/10/12 09:18:58;;;;;;;8.77;4.00;;;12.00;99.90;;;;;;4407933;32;20169;-65
2021/10/12 09:21:27;;;;;;;7.33;3.47;;;12.30;99.90;;;;;;4409643;32;20139;-66
2021/10/12 09:24:10;;;;;;;7.83;3.60;;;12.50;99.90;;;;;;4408007;32;20204;-64
2021/10/12 09:26:43;;;;;;;7.10;3.70;;;12.70;99.90;;;;;;4409175;32;20143;-64
2021/10/12 09:29:18;;;;;;;8.17;3.80;;;12.60;99.90;;;;;;4409666;32;20143;-64
2021/10/12 09:31:46;;;;;;;9.87;3.60;;;12.50;99.90;;;;;;4408656;32;20238;-64
2021/10/12 09:34:15;;;;;;;7.73;4.00;;;12.40;99.90;;;;;;4407676;32;20137;-65
2021/10/12 09:36:49;;;;;;;11.67;4.20;;;12.50;99.90;;;;;;4407838;32;20581;-65
2021/10/12 09:39:37;;;;;;;8.87;4.07;;;12.70;99.90;;;;;;4409471;32;20156;-65
2021/10/12 09:42:13;;;;;;;9.07;4.77;;;13.00;99.90;;;;;;4416482;32;20511;-64
2021/10/12 09:44:53;;;;;;;9.60;4.20;;;13.60;99.90;;;;;;4440140;32;20207;-65
2021/10/12 09:47:22;;;;;;;11.33;4.57;;;13.70;99.90;;;;;;4442227;32;20341;-64
2021/10/12 09:50:04;;;;;;;8.87;4.40;;;13.30;99.90;;;;;;4442032;32;20148;-64
2021/10/12 09:52:35;;;;;;;10.73;4.80;;;13.40;99.90;;;;;;4443929;32;20444;-64
2021/10/12 09:55:02;;;;;;;12.40;5.03;;;14.00;99.90;;;;;;4450258;32;20442;-65
2021/10/12 09:57:30;;;;;;;13.20;5.10;;;13.90;99.90;;;;;;4454521;32;20495;-65
2021/10/12 09:59:57;;;;;;;11.60;5.10;;;14.30;99.90;;;;;;4453573;32;20231;-65
2021/10/12 10:02:25;;;;;;;8.37;4.60;;;15.00;99.90;;;;;;4453111;32;20144;-65
2021/10/12 10:04:54;;;;;;;9.50;4.63;;;15.50;99.90;;;;;;4454804;32;20184;-65
2021/10/12 10:07:51;;;;;;;8.63;4.30;;;15.50;99.90;;;;;;4454709;32;20158;-65
2021/10/12 10:10:39;;;;;;;6.47;3.67;;;16.10;99.90;;;;;;4453946;32;20179;-64
2021/10/12 10:13:06;;;;;;;10.07;4.50;;;17.10;99.90;;;;;;4456338;32;20393;-64
2021/10/12 10:15:35;;;;;;;8.27;4.67;;;17.70;99.90;;;;;;4454948;32;20138;-64
2021/10/12 10:18:02;;;;;;;6.20;4.10;;;17.90;99.90;;;;;;4456508;32;20139;-64
2021/10/12 10:20:29;;;;;;;8.13;4.00;;;17.80;99.60;;;;;;4454402;32;20495;-64
2021/10/12 10:22:57;;;;;;;7.37;4.03;;;17.40;99.10;;;;;;4454626;32;20552;-63
2021/10/12 10:25:38;;;;;;;9.37;4.20;;;17.50;99.10;;;;;;4448478;32;20147;-64
2021/10/12 10:28:25;;;;;;;5.43;3.53;;;18.00;98.00;;;;;;4454369;32;20208;-65
2021/10/12 10:30:54;;;;;;;6.20;3.40;;;17.40;97.10;;;;;;4454789;32;20142;-65
2021/10/12 10:33:32;;;;;;;5.60;3.00;;;17.70;96.40;;;;;;4454217;32;20139;-65
2021/10/12 10:36:07;;;;;;;5.33;3.33;;;17.10;94.80;;;;;;4454765;32;20288;-64
2021/10/12 10:38:52;;;;;;;6.77;3.20;;;16.10;97.10;;;;;;4454430;32;20463;-67
2021/10/12 10:41:19;;;;;;;5.50;3.13;;;15.30;97.80;;;;;;4456047;32;20139;-65
2021/10/12 10:43:52;;;;;;;7.93;3.10;;;14.60;98.20;;;;;;4455737;32;20199;-65
2021/10/12 10:46:31;;;;;;;7.17;3.13;;;14.80;99.30;;;;;;4454138;32;20170;-65
2021/10/12 10:49:25;;;;;;;7.03;3.30;;;15.10;99.50;;;;;;4455332;32;20149;-65
2021/10/12 10:52:01;;;;;;;6.93;3.00;;;15.90;99.30;;;;;;4454835;32;20287;-66
2021/10/12 10:54:42;;;;;;;7.50;2.73;;;16.80;96.20;;;;;;4455620;32;20141;-65
2021/10/12 10:57:08;;;;;;;5.27;2.40;;;16.90;95.10;;;;;;4454884;32;20150;-65
2021/10/12 10:59:35;;;;;;;4.47;2.10;;;17.70;92.70;;;;;;4455981;32;20477;-66
2021/10/12 11:02:02;;;;;;;3.93;1.83;;;18.60;91.60;;;;;;4452156;32;20147;-65
2021/10/12 11:04:46;;;;;;;4.97;1.87;;;18.50;87.20;;;;;;4445469;32;20172;-66
2021/10/12 11:07:21;;;;;;;4.20;1.63;;;18.70;86.20;;;;;;4455309;32;20495;-66
2021/10/12 11:09:48;;;;;;;2.93;1.50;;;17.50;86.60;;;;;;4453608;32;20194;-65
2021/10/12 11:12:25;;;;;;;3.40;1.80;;;16.60;88.30;;;;;;4455224;32;20434;-66
2021/10/12 11:14:54;;;;;;;4.67;2.03;;;16.10;90.40;;;;;;4453498;32;20193;-66
2021/10/12 11:17:26;;;;;;;4.80;2.00;;;15.90;91.30;;;;;;4453651;32;20536;-66
2021/10/12 11:20:01;;;;;;;6.23;1.97;;;16.10;90.90;;;;;;4453831;32;20194;-66
2021/10/12 11:22:29;;;;;;;4.97;1.83;;;15.70;91.60;;;;;;4453629;32;20180;-66
2021/10/12 11:24:57;;;;;;;5.83;2.07;;;15.40;92.40;;;;;;4450364;32;20218;-66
2021/10/12 11:27:46;;;;;;;4.83;2.10;;;15.80;92.60;;;;;;4454500;32;20210;-65
2021/10/12 11:30:14;;;;;;;5.10;2.07;;;16.10;92.20;;;;;;4454424;32;20149;-66
2021/10/12 11:32:41;;;;;;;7.17;2.33;;;17.10;91.10;;;;;;4454775;32;20219;-66
2021/10/12 11:35:11;;;;;;;4.20;2.00;;;18.50;87.90;;;;;;4453684;32;20358;-67
2021/10/12 11:37:54;;;;;;;3.83;2.10;;;19.20;84.30;;;;;;4455245;32;20426;-66
2021/10/12 11:40:24;;;;;;;4.73;2.20;;;20.30;80.60;;;;;;4455581;32;20527;-65
2021/10/12 11:42:52;;;;;;;4.27;2.30;;;21.40;74.20;;;;;;4455358;32;20193;-65
2021/10/12 11:45:20;;;;;;;4.83;2.70;;;20.80;72.70;;;;;;4448485;32;20487;-64
2021/10/12 11:47:47;;;;;;;5.70;2.60;;;19.10;74.70;;;;;;4452370;32;20150;-68
2021/10/12 11:50:16;;;;;;;8.57;2.80;;;17.60;79.30;;;;;;4448287;32;20462;-66
2021/10/12 11:52:51;;;;;;;5.40;2.70;;;17.00;81.80;;;;;;4442572;32;20207;-66
2021/10/12 11:55:26;;;;;;;7.20;2.90;;;17.00;82.40;;;;;;4437631;32;20429;-67
2021/10/12 11:57:53;;;;;;;4.80;2.30;;;18.50;79.70;;;;;;4439991;32;20192;-67
2021/10/12 12:00:41;;;;;;;5.87;2.63;;;20.40;73.90;;;;;;4439101;32;20187;-68
2021/10/12 12:03:15;;;;;;;4.70;2.17;;;21.80;66.40;;;;;;4439646;32;20151;-67
2021/10/12 12:05:53;;;;;;;4.83;2.43;;;22.80;61.50;;;;;;4440116;32;20122;-67
2021/10/12 12:08:21;;;;;;;4.73;2.83;;;23.30;58.60;;;;;;4440436;32;20258;-67
2021/10/12 12:10:49;;;;;;;3.40;2.10;;;21.40;58.90;;;;;;4439231;32;20193;-66
2021/10/12 12:13:16;;;;;;;5.17;2.80;;;21.10;61.60;;;;;;4439666;32;20215;-66
2021/10/12 12:15:43;;;;;;;3.97;2.60;;;20.40;62.80;;;;;;4439380;32;20161;-65
2021/10/12 12:18:27;;;;;;;6.07;2.63;;;19.80;66.50;;;;;;4439598;32;20207;-67
2021/10/12 12:20:56;;;;;;;3.87;2.50;;;20.00;65.10;;;;;;4438104;32;20179;-67
2021/10/12 12:23:34;;;;;;;4.57;2.33;;;20.00;64.90;;;;;;4439653;32;20206;-67
2021/10/12 12:26:06;;;;;;;3.77;2.20;;;21.00;61.80;;;;;;4439801;32;20514;-67
2021/10/12 12:28:34;;;;;;;4.50;2.30;;;21.30;60.00;;;;;;4438883;32;20126;-66
2021/10/12 12:31:19;;;;;;;7.07;2.60;;;21.30;58.30;;;;;;4442955;32;20123;-67
2021/10/12 12:33:48;;;;;;;7.53;2.17;;;22.10;58.00;;;;;;4443090;32;20414;-67
2021/10/12 12:36:16;;;;;;;4.63;2.40;;;22.40;56.10;;;;;;4443020;32;20183;-68
2021/10/12 12:38:44;;;;;;;3.67;2.20;;;21.80;56.90;;;;;;4441000;32;20176;-67
2021/10/12 12:41:22;;;;;;;4.83;2.20;;;21.00;57.90;;;;;;4442553;32;20158;-67
2021/10/12 12:43:53;;;;;;;4.57;1.90;;;19.60;62.30;;;;;;4442350;32;20146;-68
2021/10/12 12:46:22;;;;;;;4.50;2.00;;;19.20;61.00;;;;;;4442763;32;20216;-67
2021/10/12 12:49:02;;;;;;;4.43;2.10;;;18.90;62.70;;;;;;4441268;32;20123;-67
2021/10/12 12:51:31;;;;;;;3.23;1.90;;;18.70;63.30;;;;;;4442495;32;20393;-68
2021/10/12 12:53:57;;;;;;;4.70;2.33;;;18.60;63.80;;;;;;4442431;32;20123;-66
2021/10/12 12:56:35;;;;;;;4.90;2.40;;;18.00;63.50;;;;;;4442604;32;20175;-68
2021/10/12 12:59:07;;;;;;;3.30;2.23;;;16.80;66.70;;;;;;4442412;32;20407;-67
2021/10/12 13:01:35;;;;;;;5.67;2.53;;;16.10;70.30;;;;;;4442420;32;20134;-67
2021/10/12 13:04:03;;;;;;;5.00;2.57;;;15.50;72.40;;;;;;4442601;32;20531;-68